createdAt,value
2022-08-29T00:00:18.525Z,6.57
2022-08-29T00:02:56.464Z,3.83
2022-08-29T00:05:28.336Z,7.38
2022-08-29T00:07:56.652Z,9.70
2022-08-29T00:10:23.157Z,6.18
2022-08-29T00:12:49.694Z,7.20
2022-08-29T00:15:16.600Z,3.97
2022-08-29T00:17:43.452Z,5.93
2022-08-29T00:20:14.671Z,8.65
2022-08-29T00:22:41.101Z,5.53
2022-08-29T00:25:08.761Z,4.93
2022-08-29T00:27:35.210Z,5.72
2022-08-29T00:30:02.355Z,3.22
2022-08-29T00:32:34.868Z,4.18
2022-08-29T00:35:04.877Z,5.03
2022-08-29T00:37:31.782Z,6.68
2022-08-29T00:39:58.597Z,6.97
2022-08-29T00:42:25.192Z,6.57
2022-08-29T00:44:51.901Z,4.90
2022-08-29T00:47:22.980Z,3.95
2022-08-29T00:52:26.509Z,6.22
2022-08-29T00:54:54.468Z,4.90
2022-08-29T00:57:23.297Z,8.07
2022-08-29T00:59:51.562Z,6.82
2022-08-29T01:02:18.375Z,5.10
2022-08-29T01:04:45.604Z,8.18
2022-08-29T01:07:12.656Z,6.30
2022-08-29T01:09:41.422Z,5.03
2022-08-29T01:12:17.039Z,6.85
2022-08-29T01:14:48.760Z,7.10
2022-08-29T01:17:20.844Z,7.57
2022-08-29T01:19:52.772Z,6.80
2022-08-29T01:22:33.701Z,5.10
2022-08-29T01:25:02.833Z,10.85
2022-08-29T01:27:31.422Z,6.72
2022-08-29T01:29:57.860Z,4.25
2022-08-29T01:32:25.562Z,5.88
2022-08-29T01:34:53.050Z,5.72
2022-08-29T01:37:20.633Z,4.50
2022-08-29T01:39:47.028Z,9.38
2022-08-29T01:42:18.373Z,4.88
2022-08-29T01:44:57.996Z,4.82
2022-08-29T01:47:27.692Z,7.07
2022-08-29T01:49:54.154Z,10.75
2022-08-29T01:52:20.796Z,4.65
2022-08-29T01:54:48.084Z,5.75
2022-08-29T01:57:16.877Z,6.53
2022-08-29T01:59:43.785Z,4.30
2022-08-29T02:02:16.593Z,8.90
2022-08-29T02:04:45.284Z,4.40
2022-08-29T02:07:12.863Z,7.45
2022-08-29T02:09:40.275Z,5.55
2022-08-29T02:12:13.673Z,4.68
2022-08-29T02:14:40.738Z,8.63
2022-08-29T02:17:07.781Z,5.50
2022-08-29T02:19:34.873Z,6.82
2022-08-29T02:22:02.563Z,9.75
2022-08-29T02:24:30.234Z,7.63
2022-08-29T02:26:57.880Z,8.00
2022-08-29T02:29:25.885Z,5.00
2022-08-29T02:31:57.322Z,5.95
2022-08-29T02:34:23.767Z,6.45
2022-08-29T02:36:50.450Z,3.15
2022-08-29T02:39:18.124Z,5.32
2022-08-29T02:41:44.789Z,7.43
2022-08-29T02:44:11.421Z,4.75
2022-08-29T02:46:38.023Z,6.78
2022-08-29T02:49:04.478Z,7.45
2022-08-29T02:51:33.751Z,5.97
2022-08-29T02:54:01.362Z,3.10
2022-08-29T02:56:29.831Z,8.82
2022-08-29T02:58:56.504Z,4.65
2022-08-29T03:01:24.373Z,6.18
2022-08-29T03:03:52.469Z,4.95
2022-08-29T03:06:20.250Z,5.53
2022-08-29T03:08:46.653Z,8.38
2022-08-29T03:11:13.982Z,6.82
2022-08-29T03:13:40.507Z,4.18
2022-08-29T03:16:08.511Z,8.07
2022-08-29T03:18:35.137Z,6.65
2022-08-29T03:21:01.844Z,5.93
2022-08-29T03:23:28.508Z,5.65
2022-08-29T03:25:55.497Z,5.47
2022-08-29T03:28:21.976Z,5.90
2022-08-29T03:30:48.368Z,4.95
2022-08-29T03:33:14.882Z,13.02
2022-08-29T03:35:42.356Z,5.43
2022-08-29T03:38:09.018Z,6.63
2022-08-29T03:40:35.748Z,6.00
2022-08-29T03:43:03.303Z,4.32
2022-08-29T03:45:29.752Z,6.18
2022-08-29T03:47:56.147Z,6.40
2022-08-29T03:50:24.314Z,5.53
2022-08-29T03:52:51.422Z,5.88
2022-08-29T03:55:20.748Z,6.85
2022-08-29T03:57:47.592Z,7.13
2022-08-29T04:00:16.857Z,6.78
2022-08-29T04:02:45.576Z,6.93
2022-08-29T04:05:13.011Z,4.70
2022-08-29T04:07:42.570Z,3.83
2022-08-29T04:10:10.375Z,7.93
2022-08-29T04:12:37.231Z,11.85
2022-08-29T04:15:05.820Z,11.07
2022-08-29T04:17:33.296Z,4.93
2022-08-29T04:19:59.840Z,8.93
2022-08-29T04:22:26.802Z,10.50
2022-08-29T04:24:53.233Z,8.40
2022-08-29T04:27:19.769Z,13.38
2022-08-29T04:29:48.315Z,12.18
2022-08-29T04:32:17.841Z,15.45
2022-08-29T04:34:44.266Z,19.33
2022-08-29T04:37:10.718Z,18.63
2022-08-29T04:39:37.871Z,20.45
2022-08-29T04:42:04.370Z,16.08
2022-08-29T04:44:30.755Z,17.15
2022-08-29T04:46:57.226Z,13.25
2022-08-29T04:49:23.936Z,5.75
2022-08-29T04:51:52.462Z,15.68
2022-08-29T04:54:18.843Z,19.58
2022-08-29T04:56:47.115Z,18.77
2022-08-29T04:59:15.725Z,18.75
2022-08-29T05:01:42.781Z,23.95
2022-08-29T05:04:14.216Z,35.60
2022-08-29T05:06:41.233Z,18.80
2022-08-29T05:09:07.716Z,33.63
2022-08-29T05:11:34.360Z,27.65
2022-08-29T05:14:02.400Z,52.97
2022-08-29T05:16:30.700Z,63.33
2022-08-29T05:18:58.643Z,45.53
2022-08-29T05:21:35.060Z,25.65
2022-08-29T05:24:03.345Z,74.55
2022-08-29T05:26:32.459Z,36.67
2022-08-29T05:28:59.117Z,32.03
2022-08-29T05:31:25.972Z,39.40
2022-08-29T05:33:52.472Z,37.17
2022-08-29T05:36:18.912Z,37.63
2022-08-29T05:38:45.285Z,47.08
2022-08-29T05:41:11.720Z,49.95
2022-08-29T05:43:38.167Z,52.95
2022-08-29T05:46:06.918Z,20.90
2022-08-29T05:48:34.423Z,34.17
2022-08-29T05:51:00.962Z,32.60
2022-08-29T05:53:27.967Z,29.80
2022-08-29T05:55:54.621Z,41.65
2022-08-29T05:58:21.244Z,36.55
2022-08-29T06:00:48.777Z,29.00
2022-08-29T06:03:15.844Z,29.60
2022-08-29T06:05:42.572Z,30.20
2022-08-29T06:08:09.154Z,32.13
2022-08-29T06:10:40.886Z,25.30
2022-08-29T06:13:07.284Z,25.30
2022-08-29T06:15:33.792Z,26.10
2022-08-29T06:18:00.313Z,27.77
2022-08-29T06:20:26.755Z,20.30
2022-08-29T06:22:53.177Z,23.95
2022-08-29T06:25:38.462Z,20.02
2022-08-29T06:28:06.024Z,21.63
2022-08-29T06:30:33.682Z,19.75
2022-08-29T06:33:01.414Z,24.55
2022-08-29T06:35:28.012Z,28.27
2022-08-29T06:37:54.415Z,26.08
2022-08-29T06:40:20.988Z,15.02
2022-08-29T06:42:47.529Z,16.30
2022-08-29T06:45:13.977Z,15.15
2022-08-29T06:47:40.361Z,12.77
2022-08-29T06:50:07.281Z,12.00
2022-08-29T06:52:33.815Z,11.52
2022-08-29T06:55:02.696Z,9.63
2022-08-29T06:57:29.105Z,8.95
2022-08-29T06:59:55.563Z,10.20
2022-08-29T07:02:22.097Z,10.90
2022-08-29T07:04:48.606Z,15.38
2022-08-29T07:07:14.997Z,12.00
2022-08-29T07:09:41.478Z,8.85
2022-08-29T07:12:07.886Z,15.13
2022-08-29T07:14:34.272Z,10.90
2022-08-29T07:17:00.754Z,8.45
2022-08-29T07:19:27.661Z,12.25
2022-08-29T07:21:54.296Z,11.43
2022-08-29T07:24:25.073Z,8.27
2022-08-29T07:26:51.654Z,11.15
2022-08-29T07:29:20.616Z,10.25
2022-08-29T07:31:47.533Z,12.68
2022-08-29T07:34:14.527Z,15.57
2022-08-29T07:36:41.134Z,13.48
2022-08-29T07:39:10.842Z,8.95
2022-08-29T07:41:39.267Z,11.93
2022-08-29T07:44:06.428Z,6.28
2022-08-29T07:46:32.850Z,10.35
2022-08-29T07:49:00.313Z,9.70
2022-08-29T07:51:27.710Z,8.82
2022-08-29T07:53:55.095Z,10.35
2022-08-29T07:56:25.043Z,6.18
2022-08-29T07:58:52.111Z,10.90
2022-08-29T08:01:21.074Z,10.63
2022-08-29T08:03:50.753Z,6.30
2022-08-29T08:06:19.741Z,16.50
2022-08-29T08:08:47.106Z,15.00
2022-08-29T08:11:14.670Z,11.57
2022-08-29T08:13:41.285Z,11.90
2022-08-29T08:16:11.231Z,9.50
2022-08-29T08:18:38.856Z,13.05
2022-08-29T08:21:05.733Z,9.48
2022-08-29T08:23:32.535Z,7.72
2022-08-29T08:25:59.460Z,8.98
2022-08-29T08:28:28.058Z,8.95
2022-08-29T08:30:55.114Z,9.52
2022-08-29T08:33:21.604Z,12.80
2022-08-29T08:35:48.039Z,7.43
2022-08-29T08:38:16.804Z,8.05
2022-08-29T08:40:56.925Z,8.70
2022-08-29T08:43:28.356Z,12.07
2022-08-29T08:45:56.547Z,10.13
2022-08-29T08:48:25.935Z,13.15
2022-08-29T08:51:22.657Z,9.77
2022-08-29T08:53:54.433Z,9.50
2022-08-29T08:56:37.464Z,11.35
2022-08-29T08:59:20.966Z,13.70
2022-08-29T09:01:53.735Z,8.63
2022-08-29T09:04:32.369Z,8.80
2022-08-29T09:07:04.489Z,7.78
2022-08-29T09:09:44.304Z,7.68
2022-08-29T09:12:37.814Z,16.50
2022-08-29T09:15:17.735Z,8.35
2022-08-29T09:17:56.011Z,8.02
2022-08-29T09:20:29.058Z,14.55
2022-08-29T09:23:18.465Z,9.30
2022-08-29T09:25:45.549Z,16.15
2022-08-29T09:28:12.102Z,8.32
2022-08-29T09:30:42.808Z,10.82
2022-08-29T09:33:13.246Z,12.00
2022-08-29T09:35:48.819Z,7.15
2022-08-29T09:38:18.340Z,11.40
2022-08-29T09:40:58.345Z,10.88
2022-08-29T09:43:26.748Z,11.63
2022-08-29T09:46:05.417Z,11.30
2022-08-29T09:48:35.535Z,14.07
2022-08-29T09:51:15.083Z,15.13
2022-08-29T09:53:42.816Z,13.00
2022-08-29T09:56:17.227Z,12.15
2022-08-29T09:58:43.837Z,10.77
2022-08-29T10:01:29.636Z,12.60
2022-08-29T10:04:00.093Z,9.95
2022-08-29T10:06:29.969Z,8.02
2022-08-29T10:09:25.578Z,8.80
2022-08-29T10:12:28.332Z,10.30
2022-08-29T10:15:00.152Z,10.05
2022-08-29T10:17:57.576Z,9.02
2022-08-29T10:20:35.450Z,9.30
2022-08-29T10:23:18.645Z,7.25
2022-08-29T10:25:45.366Z,5.85
2022-08-29T10:28:25.345Z,4.72
2022-08-29T10:31:02.614Z,10.50
2022-08-29T10:34:12.782Z,6.05
2022-08-29T10:36:40.905Z,5.78
2022-08-29T10:39:23.549Z,8.77
2022-08-29T10:42:04.489Z,5.20
2022-08-29T10:45:09.647Z,16.75
2022-08-29T10:47:47.570Z,8.02
2022-08-29T10:50:43.007Z,9.88
2022-08-29T10:53:34.679Z,6.47
2022-08-29T10:56:14.132Z,4.50
2022-08-29T10:58:58.007Z,6.88
2022-08-29T11:01:38.997Z,7.00
2022-08-29T11:04:22.450Z,6.18
2022-08-29T11:06:54.677Z,5.82
2022-08-29T11:09:27.979Z,5.38
2022-08-29T11:12:19.659Z,12.00
2022-08-29T11:15:14.145Z,9.70
2022-08-29T11:17:44.312Z,6.80
2022-08-29T11:20:20.409Z,12.05
2022-08-29T11:22:52.564Z,8.45
2022-08-29T11:25:20.788Z,4.30
2022-08-29T11:28:17.092Z,11.88
2022-08-29T11:30:48.439Z,7.85
2022-08-29T11:33:20.961Z,9.32
2022-08-29T11:36:17.214Z,6.32
2022-08-29T11:38:55.021Z,8.15
2022-08-29T11:41:35.184Z,6.18
2022-08-29T11:44:19.358Z,5.85
2022-08-29T11:46:53.275Z,5.95
2022-08-29T11:49:36.929Z,9.55
2022-08-29T11:52:10.802Z,9.57
2022-08-29T11:54:37.347Z,5.90
2022-08-29T11:57:04.054Z,7.50
2022-08-29T11:59:48.742Z,8.82
2022-08-29T12:02:27.493Z,4.55
2022-08-29T12:05:01.020Z,6.40
2022-08-29T12:07:48.851Z,5.43
2022-08-29T12:10:24.282Z,5.75
2022-08-29T12:12:56.451Z,10.05
2022-08-29T12:15:38.230Z,10.63
2022-08-29T12:18:13.986Z,6.85
2022-08-29T12:20:52.472Z,5.88
2022-08-29T12:23:36.209Z,5.72
2022-08-29T12:26:42.726Z,10.85
2022-08-29T12:29:44.588Z,13.45
2022-08-29T12:32:40.094Z,6.80
2022-08-29T12:35:29.402Z,10.20
2022-08-29T12:38:05.346Z,8.88
2022-08-29T12:40:50.352Z,9.88
2022-08-29T12:43:35.241Z,9.45
2022-08-29T12:46:23.213Z,5.70
2022-08-29T12:48:57.321Z,6.93
2022-08-29T12:51:32.836Z,7.50
2022-08-29T12:53:59.312Z,6.50
2022-08-29T12:56:26.123Z,9.07
2022-08-29T12:58:52.464Z,10.38
2022-08-29T13:01:30.695Z,9.57
2022-08-29T13:04:15.817Z,11.82
2022-08-29T13:07:01.200Z,10.23
2022-08-29T13:09:37.655Z,7.75
2022-08-29T13:12:17.974Z,7.20
2022-08-29T13:14:52.034Z,6.25
2022-08-29T13:17:22.542Z,5.95
2022-08-29T13:20:26.640Z,5.82
2022-08-29T13:23:09.622Z,8.75
2022-08-29T13:26:02.349Z,11.65
2022-08-29T13:28:48.782Z,6.75
2022-08-29T13:31:15.176Z,9.80
2022-08-29T13:33:56.625Z,3.97
2022-08-29T13:36:37.401Z,9.35
2022-08-29T13:41:57.341Z,9.82
2022-08-29T13:44:33.188Z,8.82
2022-08-29T13:47:01.737Z,7.68
2022-08-29T13:49:34.001Z,5.68
2022-08-29T13:52:00.756Z,8.13
2022-08-29T13:54:33.057Z,8.25
2022-08-29T13:57:03.252Z,5.97
2022-08-29T13:59:36.033Z,6.15
2022-08-29T14:02:11.066Z,9.02
2022-08-29T14:04:40.333Z,7.97
2022-08-29T14:07:11.407Z,6.97
2022-08-29T14:09:41.653Z,13.52
2022-08-29T14:12:09.625Z,8.27
2022-08-29T14:14:36.363Z,5.78
2022-08-29T14:17:02.835Z,6.68
2022-08-29T14:19:29.482Z,6.22
2022-08-29T14:21:59.025Z,9.38
2022-08-29T14:24:28.948Z,9.63
2022-08-29T14:27:01.165Z,8.50
2022-08-29T14:29:32.171Z,13.27
2022-08-29T14:31:59.635Z,5.10
2022-08-29T14:34:30.745Z,6.15
2022-08-29T14:36:59.229Z,9.70
2022-08-29T14:39:26.390Z,10.30
2022-08-29T14:41:53.817Z,15.57
2022-08-29T14:44:21.795Z,5.68
2022-08-29T14:46:48.644Z,4.63
2022-08-29T14:49:15.252Z,3.85
2022-08-29T14:51:42.005Z,6.82
2022-08-29T14:54:08.477Z,6.28
2022-08-29T14:56:47.978Z,7.22
2022-08-29T14:59:15.760Z,5.43
2022-08-29T15:01:42.332Z,9.07
2022-08-29T15:04:09.008Z,9.38
2022-08-29T15:06:37.587Z,6.30
2022-08-29T15:09:04.277Z,5.90
2022-08-29T15:11:31.286Z,3.75
2022-08-29T15:14:03.509Z,3.72
2022-08-29T15:16:31.795Z,7.43
2022-08-29T15:21:44.789Z,4.88
2022-08-29T15:24:11.197Z,8.95
2022-08-29T15:26:37.748Z,7.00
2022-08-29T15:29:04.158Z,6.90
2022-08-29T15:31:30.775Z,10.07
2022-08-29T15:33:57.741Z,5.40
2022-08-29T15:36:24.181Z,8.75
2022-08-29T15:38:50.595Z,15.10
2022-08-29T15:41:17.062Z,6.30
2022-08-29T15:43:43.506Z,8.95
2022-08-29T15:46:09.951Z,4.90
2022-08-29T15:48:37.343Z,5.18
2022-08-29T15:51:03.988Z,5.68
2022-08-29T15:53:30.430Z,5.78
2022-08-29T15:55:56.891Z,6.18
2022-08-29T15:58:23.328Z,3.90
2022-08-29T16:00:49.732Z,3.53
2022-08-29T16:03:16.546Z,5.30
2022-08-29T16:05:43.679Z,5.13
2022-08-29T16:08:10.954Z,5.75
2022-08-29T16:10:43.405Z,9.23
2022-08-29T16:13:09.961Z,4.78
2022-08-29T16:15:36.965Z,4.55
2022-08-29T16:18:04.164Z,3.50
2022-08-29T16:20:31.527Z,4.15
2022-08-29T16:22:59.456Z,4.97
2022-08-29T16:25:26.834Z,4.38
2022-08-29T16:27:53.340Z,4.68
2022-08-29T16:30:20.888Z,3.90
2022-08-29T16:32:49.444Z,5.30
2022-08-29T16:35:16.738Z,7.55
2022-08-29T16:37:44.804Z,5.25
2022-08-29T16:40:14.886Z,5.57
2022-08-29T16:42:42.104Z,3.40
2022-08-29T16:45:22.069Z,5.53
2022-08-29T16:47:48.471Z,6.22
2022-08-29T16:50:14.865Z,5.10
2022-08-29T16:52:41.264Z,9.75
2022-08-29T16:55:08.358Z,6.05
2022-08-29T16:57:35.246Z,4.90
2022-08-29T17:00:02.533Z,4.40
2022-08-29T17:02:29.096Z,3.90
2022-08-29T17:04:55.598Z,4.00
2022-08-29T17:07:32.293Z,4.13
2022-08-29T17:09:59.828Z,4.40
2022-08-29T17:12:26.223Z,2.97
2022-08-29T17:14:54.992Z,4.03
2022-08-29T17:17:21.527Z,5.30
2022-08-29T17:19:48.080Z,3.78
2022-08-29T17:22:18.019Z,4.63
2022-08-29T17:24:46.329Z,4.20
2022-08-29T17:27:16.221Z,4.28
2022-08-29T17:29:47.162Z,5.20
2022-08-29T17:32:14.429Z,5.88
2022-08-29T17:34:42.467Z,5.70
2022-08-29T17:37:10.230Z,9.02
2022-08-29T17:39:40.002Z,6.18
2022-08-29T17:42:06.962Z,4.20
2022-08-29T17:44:34.633Z,10.63
2022-08-29T17:47:01.150Z,7.00
2022-08-29T17:49:28.325Z,6.68
2022-08-29T17:51:55.308Z,7.85
2022-08-29T17:54:23.612Z,6.35
2022-08-29T17:56:53.736Z,6.30
2022-08-29T17:59:22.700Z,7.60
2022-08-29T18:01:49.672Z,4.60
2022-08-29T18:04:17.733Z,8.23
2022-08-29T18:06:44.855Z,11.00
2022-08-29T18:09:11.502Z,13.07
2022-08-29T18:11:44.045Z,9.90
2022-08-29T18:14:11.829Z,18.30
2022-08-29T18:16:38.516Z,15.82
2022-08-29T18:19:06.388Z,23.33
2022-08-29T18:21:33.576Z,19.27
2022-08-29T18:23:59.997Z,19.58
2022-08-29T18:26:27.635Z,17.30
2022-08-29T18:28:55.369Z,11.35
2022-08-29T18:31:21.946Z,11.13
2022-08-29T18:34:03.903Z,5.78
2022-08-29T18:36:32.421Z,5.75
2022-08-29T18:38:59.230Z,5.88
2022-08-29T18:41:26.302Z,3.47
2022-08-29T18:43:53.194Z,5.18
2022-08-29T18:46:19.840Z,5.47
2022-08-29T18:48:46.778Z,5.35
2022-08-29T18:51:14.628Z,5.32
2022-08-29T18:53:41.201Z,7.65
2022-08-29T18:56:07.772Z,6.40
2022-08-29T18:58:35.863Z,11.75
2022-08-29T19:01:16.920Z,6.53
2022-08-29T19:06:22.635Z,8.73
2022-08-29T19:08:49.037Z,7.78
2022-08-29T19:11:15.490Z,7.40
2022-08-29T19:13:41.889Z,7.25
2022-08-29T19:16:09.792Z,11.25
2022-08-29T19:18:36.850Z,7.60
2022-08-29T19:21:07.301Z,11.27
2022-08-29T19:23:36.856Z,7.13
2022-08-29T19:26:07.625Z,8.07
2022-08-29T19:28:34.577Z,12.23
2022-08-29T19:31:02.216Z,4.55
2022-08-29T19:33:28.653Z,11.48
2022-08-29T19:35:55.188Z,9.18
2022-08-29T19:38:22.770Z,10.32
2022-08-29T19:40:55.269Z,9.00
2022-08-29T19:43:25.192Z,8.25
2022-08-29T19:45:51.753Z,5.78
2022-08-29T19:48:18.409Z,9.07
2022-08-29T19:50:47.844Z,6.68
2022-08-29T19:53:24.685Z,4.95
2022-08-29T19:55:53.385Z,4.05
2022-08-29T19:58:19.880Z,5.30
2022-08-29T20:00:46.377Z,6.15
2022-08-29T20:03:13.241Z,9.15
2022-08-29T20:05:40.034Z,6.80
2022-08-29T20:08:06.423Z,5.63
2022-08-29T20:10:34.826Z,6.57
2022-08-29T20:13:01.238Z,12.82
2022-08-29T20:15:30.549Z,5.10
2022-08-29T20:17:59.053Z,4.72
2022-08-29T20:20:29.584Z,9.13
2022-08-29T20:25:23.809Z,6.78
2022-08-29T20:27:50.804Z,6.13
2022-08-29T20:30:23.003Z,5.68
2022-08-29T20:32:50.474Z,5.90
2022-08-29T20:35:37.384Z,5.38
2022-08-29T20:38:03.906Z,5.47
2022-08-29T20:40:30.520Z,5.18
2022-08-29T20:42:57.503Z,7.22
2022-08-29T20:45:24.496Z,8.02
2022-08-29T20:47:50.925Z,9.75
2022-08-29T20:50:17.341Z,6.00
2022-08-29T20:52:43.793Z,5.20
2022-08-29T20:55:11.399Z,8.13
2022-08-29T20:57:39.290Z,9.10
2022-08-29T21:00:06.514Z,9.25
2022-08-29T21:02:51.199Z,14.77
2022-08-29T21:05:35.998Z,9.25
2022-08-29T21:08:02.622Z,6.32
2022-08-29T21:10:30.113Z,8.77
2022-08-29T21:12:56.493Z,5.22
2022-08-29T21:15:22.869Z,10.68
2022-08-29T21:17:49.260Z,6.93
2022-08-29T21:20:15.691Z,8.35
2022-08-29T21:22:42.094Z,12.40
2022-08-29T21:25:08.682Z,7.63
2022-08-29T21:27:35.120Z,12.15
2022-08-29T21:30:01.604Z,9.20
2022-08-29T21:32:27.996Z,8.20
2022-08-29T21:34:54.402Z,16.73
2022-08-29T21:37:20.835Z,11.85
2022-08-29T21:39:47.851Z,13.68
2022-08-29T21:42:14.684Z,9.43
2022-08-29T21:44:42.004Z,15.02
2022-08-29T21:47:08.553Z,8.77
2022-08-29T21:49:34.970Z,8.30
2022-08-29T21:52:01.432Z,11.32
2022-08-29T21:54:27.965Z,8.50
2022-08-29T21:56:54.397Z,11.43
2022-08-29T21:59:21.769Z,4.90
2022-08-29T22:01:52.537Z,8.95
2022-08-29T22:04:28.604Z,7.18
2022-08-29T22:06:56.936Z,9.88
2022-08-29T22:09:23.565Z,6.88
2022-08-29T22:11:49.978Z,7.72
2022-08-29T22:14:16.358Z,9.15
2022-08-29T22:16:42.912Z,9.65
2022-08-29T22:19:13.886Z,16.70
2022-08-29T22:21:43.704Z,14.65
2022-08-29T22:24:11.290Z,8.02
2022-08-29T22:26:39.518Z,10.40
2022-08-29T22:29:07.911Z,13.38
2022-08-29T22:31:38.364Z,13.15
2022-08-29T22:34:05.347Z,7.93
2022-08-29T22:36:33.693Z,12.23
2022-08-29T22:39:00.143Z,9.30
2022-08-29T22:41:26.553Z,9.95
2022-08-29T22:44:31.653Z,11.20
2022-08-29T22:46:43.453Z,11.18
2022-08-29T22:49:10.055Z,6.32
2022-08-29T22:51:36.478Z,9.40
2022-08-29T22:54:21.774Z,8.00
2022-08-29T22:56:48.235Z,12.85
2022-08-29T22:59:14.686Z,7.22
2022-08-29T23:01:43.732Z,9.93
2022-08-29T23:04:11.158Z,12.68
2022-08-29T23:06:37.532Z,14.27
2022-08-29T23:09:04.999Z,6.32
2022-08-29T23:11:31.428Z,13.50
2022-08-29T23:13:57.937Z,9.93
2022-08-29T23:16:24.514Z,12.13
2022-08-29T23:18:51.295Z,7.90
2022-08-29T23:21:18.692Z,9.70
2022-08-29T23:23:45.154Z,10.88
2022-08-29T23:26:11.902Z,12.45
2022-08-29T23:28:38.312Z,8.73
2022-08-29T23:31:04.961Z,11.30
2022-08-29T23:33:31.528Z,12.13
2022-08-29T23:35:58.089Z,8.65
2022-08-29T23:38:24.590Z,9.70
2022-08-29T23:40:51.213Z,11.27
2022-08-29T23:43:18.933Z,8.20
2022-08-29T23:45:45.313Z,5.97
2022-08-29T23:48:11.702Z,9.05
2022-08-29T23:50:38.184Z,13.02
2022-08-29T23:53:04.893Z,9.10
2022-08-29T23:55:31.281Z,9.60
2022-08-29T23:57:57.708Z,8.23
